sensor_id;sensor_type;location;lat;lon;timestamp;P1;durP1;ratioP1;P2;durP2;ratioP2
12110;SDS011;6119;52.372;8.990;2022-09-24T00:02:03;10.60;;;7.60;;
12110;SDS011;6119;52.372;8.990;2022-09-24T00:04:50;8.07;;;6.60;;
12110;SDS011;6119;52.372;8.990;2022-09-24T00:07:36;7.07;;;5.50;;
12110;SDS011;6119;52.372;8.990;2022-09-24T00:10:23;8.80;;;5.90;;
12110;SDS011;6119;52.372;8.990;2022-09-24T00:13:11;6.63;;;5.67;;
12110;SDS011;6119;52.372;8.990;2022-09-24T00:16:00;8.80;;;5.87;;
12110;SDS011;6119;52.372;8.990;2022-09-24T00:18:49;6.67;;;5.80;;
12110;SDS011;6119;52.372;8.990;2022-09-24T00:21:36;8.53;;;5.80;;
12110;SDS011;6119;52.372;8.990;2022-09-24T00:24:23;7.93;;;5.83;;
12110;SDS011;6119;52.372;8.990;2022-09-24T00:27:27;6.47;;;5.87;;
12110;SDS011;6119;52.372;8.990;2022-09-24T00:30:15;7.80;;;5.77;;
12110;SDS011;6119;52.372;8.990;2022-09-24T00:33:01;9.43;;;6.40;;
12110;SDS011;6119;52.372;8.990;2022-09-24T00:35:48;7.37;;;6.40;;
12110;SDS011;6119;52.372;8.990;2022-09-24T00:38:36;7.80;;;5.97;;
12110;SDS011;6119;52.372;8.990;2022-09-24T00:41:23;7.00;;;6.07;;
12110;SDS011;6119;52.372;8.990;2022-09-24T00:47:38;7.77;;;6.30;;
12110;SDS011;6119;52.372;8.990;2022-09-24T00:50:28;6.50;;;5.87;;
12110;SDS011;6119;52.372;8.990;2022-09-24T00:53:18;8.37;;;5.73;;
12110;SDS011;6119;52.372;8.990;2022-09-24T00:56:07;6.97;;;6.30;;
12110;SDS011;6119;52.372;8.990;2022-09-24T00:58:55;9.23;;;6.83;;
12110;SDS011;6119;52.372;8.990;2022-09-24T01:01:46;7.20;;;6.27;;
12110;SDS011;6119;52.372;8.990;2022-09-24T01:04:35;8.13;;;6.63;;
12110;SDS011;6119;52.372;8.990;2022-09-24T01:07:22;8.23;;;7.17;;
12110;SDS011;6119;52.372;8.990;2022-09-24T01:10:09;7.77;;;6.27;;
12110;SDS011;6119;52.372;8.990;2022-09-24T01:12:56;8.17;;;6.50;;
12110;SDS011;6119;52.372;8.990;2022-09-24T01:15:51;7.97;;;7.13;;
12110;SDS011;6119;52.372;8.990;2022-09-24T01:18:45;6.37;;;5.67;;
12110;SDS011;6119;52.372;8.990;2022-09-24T01:21:39;9.23;;;6.10;;
12110;SDS011;6119;52.372;8.990;2022-09-24T01:24:45;9.97;;;6.27;;
12110;SDS011;6119;52.372;8.990;2022-09-24T01:27:44;6.50;;;5.90;;
12110;SDS011;6119;52.372;8.990;2022-09-24T01:30:44;7.43;;;6.43;;
12110;SDS011;6119;52.372;8.990;2022-09-24T01:33:35;7.40;;;6.43;;
12110;SDS011;6119;52.372;8.990;2022-09-24T01:36:22;7.87;;;6.50;;
12110;SDS011;6119;52.372;8.990;2022-09-24T01:39:10;8.07;;;7.27;;
12110;SDS011;6119;52.372;8.990;2022-09-24T01:41:58;6.87;;;6.20;;
12110;SDS011;6119;52.372;8.990;2022-09-24T01:44:46;8.83;;;6.90;;
12110;SDS011;6119;52.372;8.990;2022-09-24T01:47:36;8.73;;;6.73;;
12110;SDS011;6119;52.372;8.990;2022-09-24T01:50:25;7.37;;;6.63;;
12110;SDS011;6119;52.372;8.990;2022-09-24T01:53:16;7.50;;;6.70;;
12110;SDS011;6119;52.372;8.990;2022-09-24T01:56:07;7.43;;;6.63;;
12110;SDS011;6119;52.372;8.990;2022-09-24T01:58:57;10.70;;;7.87;;
12110;SDS011;6119;52.372;8.990;2022-09-24T02:01:49;8.10;;;6.37;;
12110;SDS011;6119;52.372;8.990;2022-09-24T02:04:46;8.17;;;7.23;;
12110;SDS011;6119;52.372;8.990;2022-09-24T02:07:39;8.50;;;7.00;;
12110;SDS011;6119;52.372;8.990;2022-09-24T02:10:33;10.17;;;7.10;;
12110;SDS011;6119;52.372;8.990;2022-09-24T02:13:26;8.93;;;7.70;;
12110;SDS011;6119;52.372;8.990;2022-09-24T02:16:25;10.87;;;7.27;;
12110;SDS011;6119;52.372;8.990;2022-09-24T02:19:15;10.30;;;8.07;;
12110;SDS011;6119;52.372;8.990;2022-09-24T02:22:05;9.23;;;7.80;;
12110;SDS011;6119;52.372;8.990;2022-09-24T02:24:54;10.20;;;8.00;;
12110;SDS011;6119;52.372;8.990;2022-09-24T02:27:42;8.80;;;7.87;;
12110;SDS011;6119;52.372;8.990;2022-09-24T02:30:29;8.90;;;8.00;;
12110;SDS011;6119;52.372;8.990;2022-09-24T02:33:22;8.53;;;7.60;;
12110;SDS011;6119;52.372;8.990;2022-09-24T02:36:28;10.00;;;8.13;;
12110;SDS011;6119;52.372;8.990;2022-09-24T02:39:16;8.33;;;7.53;;
12110;SDS011;6119;52.372;8.990;2022-09-24T02:42:03;10.30;;;8.53;;
12110;SDS011;6119;52.372;8.990;2022-09-24T02:44:51;9.60;;;7.63;;
12110;SDS011;6119;52.372;8.990;2022-09-24T02:47:41;9.00;;;8.07;;
12110;SDS011;6119;52.372;8.990;2022-09-24T02:50:27;10.40;;;8.57;;
12110;SDS011;6119;52.372;8.990;2022-09-24T02:53:14;8.70;;;7.80;;
12110;SDS011;6119;52.372;8.990;2022-09-24T02:56:02;9.20;;;7.80;;
12110;SDS011;6119;52.372;8.990;2022-09-24T02:58:49;11.10;;;8.03;;
12110;SDS011;6119;52.372;8.990;2022-09-24T03:01:35;9.57;;;8.07;;
12110;SDS011;6119;52.372;8.990;2022-09-24T03:04:22;11.27;;;8.27;;
12110;SDS011;6119;52.372;8.990;2022-09-24T03:07:09;10.27;;;8.93;;
12110;SDS011;6119;52.372;8.990;2022-09-24T03:09:59;10.27;;;8.50;;
12110;SDS011;6119;52.372;8.990;2022-09-24T03:12:46;13.27;;;8.70;;
12110;SDS011;6119;52.372;8.990;2022-09-24T03:15:33;13.27;;;9.97;;
12110;SDS011;6119;52.372;8.990;2022-09-24T03:18:19;12.00;;;10.37;;
12110;SDS011;6119;52.372;8.990;2022-09-24T03:21:07;15.47;;;10.30;;
12110;SDS011;6119;52.372;8.990;2022-09-24T03:23:56;13.53;;;10.50;;
12110;SDS011;6119;52.372;8.990;2022-09-24T03:26:43;10.97;;;9.60;;
12110;SDS011;6119;52.372;8.990;2022-09-24T03:29:31;14.80;;;12.13;;
12110;SDS011;6119;52.372;8.990;2022-09-24T03:32:35;19.43;;;14.80;;
12110;SDS011;6119;52.372;8.990;2022-09-24T03:35:23;15.97;;;14.03;;
12110;SDS011;6119;52.372;8.990;2022-09-24T03:38:09;14.90;;;12.97;;
12110;SDS011;6119;52.372;8.990;2022-09-24T03:40:56;13.50;;;11.20;;
12110;SDS011;6119;52.372;8.990;2022-09-24T03:43:43;14.30;;;11.40;;
12110;SDS011;6119;52.372;8.990;2022-09-24T03:46:31;13.37;;;10.13;;
12110;SDS011;6119;52.372;8.990;2022-09-24T03:49:17;11.53;;;10.30;;
12110;SDS011;6119;52.372;8.990;2022-09-24T03:52:04;13.33;;;10.27;;
12110;SDS011;6119;52.372;8.990;2022-09-24T03:54:51;13.03;;;10.53;;
12110;SDS011;6119;52.372;8.990;2022-09-24T03:57:37;12.23;;;10.07;;
12110;SDS011;6119;52.372;8.990;2022-09-24T04:00:23;11.50;;;10.03;;
12110;SDS011;6119;52.372;8.990;2022-09-24T04:03:12;12.97;;;10.40;;
12110;SDS011;6119;52.372;8.990;2022-09-24T04:05:59;12.53;;;10.17;;
12110;SDS011;6119;52.372;8.990;2022-09-24T04:08:45;12.70;;;10.10;;
12110;SDS011;6119;52.372;8.990;2022-09-24T04:11:32;11.70;;;10.50;;
12110;SDS011;6119;52.372;8.990;2022-09-24T04:14:19;12.60;;;10.53;;
12110;SDS011;6119;52.372;8.990;2022-09-24T04:17:05;12.43;;;10.40;;
12110;SDS011;6119;52.372;8.990;2022-09-24T04:19:53;13.10;;;10.87;;
12110;SDS011;6119;52.372;8.990;2022-09-24T04:22:40;14.67;;;11.33;;
12110;SDS011;6119;52.372;8.990;2022-09-24T04:25:27;15.07;;;11.37;;
12110;SDS011;6119;52.372;8.990;2022-09-24T04:28:15;14.67;;;11.40;;
12110;SDS011;6119;52.372;8.990;2022-09-24T04:31:02;13.77;;;11.53;;
12110;SDS011;6119;52.372;8.990;2022-09-24T04:33:49;14.00;;;11.43;;
12110;SDS011;6119;52.372;8.990;2022-09-24T04:36:37;13.83;;;11.57;;
12110;SDS011;6119;52.372;8.990;2022-09-24T04:39:24;12.33;;;10.27;;
12110;SDS011;6119;52.372;8.990;2022-09-24T04:42:14;12.47;;;10.67;;
12110;SDS011;6119;52.372;8.990;2022-09-24T04:45:01;12.70;;;10.60;;
12110;SDS011;6119;52.372;8.990;2022-09-24T04:47:49;17.70;;;11.00;;
12110;SDS011;6119;52.372;8.990;2022-09-24T04:50:39;15.03;;;11.33;;
12110;SDS011;6119;52.372;8.990;2022-09-24T04:53:31;18.90;;;14.33;;
12110;SDS011;6119;52.372;8.990;2022-09-24T04:56:18;20.17;;;15.10;;
12110;SDS011;6119;52.372;8.990;2022-09-24T04:59:04;19.60;;;14.23;;
12110;SDS011;6119;52.372;8.990;2022-09-24T05:01:50;19.37;;;14.27;;
12110;SDS011;6119;52.372;8.990;2022-09-24T05:04:38;18.13;;;13.77;;
12110;SDS011;6119;52.372;8.990;2022-09-24T05:07:25;15.57;;;12.17;;
12110;SDS011;6119;52.372;8.990;2022-09-24T05:10:13;14.73;;;11.63;;
12110;SDS011;6119;52.372;8.990;2022-09-24T05:12:59;14.90;;;11.97;;
12110;SDS011;6119;52.372;8.990;2022-09-24T05:15:46;22.33;;;14.03;;
12110;SDS011;6119;52.372;8.990;2022-09-24T05:18:33;18.27;;;14.60;;
12110;SDS011;6119;52.372;8.990;2022-09-24T05:21:20;23.80;;;16.73;;
12110;SDS011;6119;52.372;8.990;2022-09-24T05:24:07;18.47;;;15.10;;
12110;SDS011;6119;52.372;8.990;2022-09-24T05:26:54;24.60;;;17.90;;
12110;SDS011;6119;52.372;8.990;2022-09-24T05:29:56;31.27;;;21.47;;
12110;SDS011;6119;52.372;8.990;2022-09-24T05:32:44;32.67;;;23.10;;
12110;SDS011;6119;52.372;8.990;2022-09-24T05:35:33;33.17;;;25.40;;
12110;SDS011;6119;52.372;8.990;2022-09-24T05:38:19;28.70;;;21.93;;
12110;SDS011;6119;52.372;8.990;2022-09-24T05:41:06;31.23;;;20.93;;
12110;SDS011;6119;52.372;8.990;2022-09-24T05:43:54;29.00;;;22.67;;
12110;SDS011;6119;52.372;8.990;2022-09-24T05:46:41;19.23;;;15.10;;
12110;SDS011;6119;52.372;8.990;2022-09-24T05:49:29;19.23;;;14.43;;
12110;SDS011;6119;52.372;8.990;2022-09-24T05:52:16;19.13;;;13.83;;
12110;SDS011;6119;52.372;8.990;2022-09-24T05:55:02;21.50;;;13.37;;
12110;SDS011;6119;52.372;8.990;2022-09-24T05:57:50;17.30;;;12.60;;
12110;SDS011;6119;52.372;8.990;2022-09-24T06:00:37;13.83;;;11.63;;
12110;SDS011;6119;52.372;8.990;2022-09-24T06:03:24;18.47;;;12.67;;
12110;SDS011;6119;52.372;8.990;2022-09-24T06:06:11;22.37;;;12.43;;
12110;SDS011;6119;52.372;8.990;2022-09-24T06:08:57;13.77;;;11.50;;
12110;SDS011;6119;52.372;8.990;2022-09-24T06:11:44;18.77;;;12.43;;
12110;SDS011;6119;52.372;8.990;2022-09-24T06:14:33;14.33;;;11.60;;
12110;SDS011;6119;52.372;8.990;2022-09-24T06:17:21;14.30;;;11.23;;
12110;SDS011;6119;52.372;8.990;2022-09-24T06:20:08;15.40;;;11.30;;
12110;SDS011;6119;52.372;8.990;2022-09-24T06:22:55;13.20;;;10.57;;
12110;SDS011;6119;52.372;8.990;2022-09-24T06:25:42;13.50;;;11.30;;
12110;SDS011;6119;52.372;8.990;2022-09-24T06:28:28;19.53;;;12.77;;
12110;SDS011;6119;52.372;8.990;2022-09-24T06:31:15;16.27;;;12.00;;
12110;SDS011;6119;52.372;8.990;2022-09-24T06:34:04;15.97;;;11.83;;
12110;SDS011;6119;52.372;8.990;2022-09-24T06:36:52;14.70;;;11.60;;
12110;SDS011;6119;52.372;8.990;2022-09-24T06:39:38;16.40;;;12.70;;
12110;SDS011;6119;52.372;8.990;2022-09-24T06:42:24;18.10;;;12.10;;
12110;SDS011;6119;52.372;8.990;2022-09-24T06:45:11;18.90;;;13.17;;
12110;SDS011;6119;52.372;8.990;2022-09-24T06:47:58;19.23;;;12.43;;
12110;SDS011;6119;52.372;8.990;2022-09-24T06:50:47;17.93;;;13.60;;
12110;SDS011;6119;52.372;8.990;2022-09-24T06:53:33;17.90;;;13.17;;
12110;SDS011;6119;52.372;8.990;2022-09-24T06:56:20;16.03;;;12.93;;
12110;SDS011;6119;52.372;8.990;2022-09-24T06:59:07;20.30;;;12.47;;
12110;SDS011;6119;52.372;8.990;2022-09-24T07:01:54;19.20;;;13.87;;
12110;SDS011;6119;52.372;8.990;2022-09-24T07:04:40;15.87;;;12.80;;
12110;SDS011;6119;52.372;8.990;2022-09-24T07:07:28;18.17;;;13.70;;
12110;SDS011;6119;52.372;8.990;2022-09-24T07:10:16;18.60;;;13.70;;
12110;SDS011;6119;52.372;8.990;2022-09-24T07:13:03;20.17;;;13.47;;
12110;SDS011;6119;52.372;8.990;2022-09-24T07:15:50;16.63;;;13.33;;
12110;SDS011;6119;52.372;8.990;2022-09-24T07:18:37;18.00;;;13.00;;
12110;SDS011;6119;52.372;8.990;2022-09-24T07:21:24;22.73;;;14.03;;
12110;SDS011;6119;52.372;8.990;2022-09-24T07:24:12;20.00;;;13.67;;
12110;SDS011;6119;52.372;8.990;2022-09-24T07:26:58;17.37;;;13.50;;
12110;SDS011;6119;52.372;8.990;2022-09-24T07:29:44;28.37;;;18.77;;
12110;SDS011;6119;52.372;8.990;2022-09-24T07:32:31;25.43;;;15.83;;
12110;SDS011;6119;52.372;8.990;2022-09-24T07:35:17;19.13;;;13.80;;
12110;SDS011;6119;52.372;8.990;2022-09-24T07:38:05;22.03;;;14.57;;
12110;SDS011;6119;52.372;8.990;2022-09-24T07:40:56;19.10;;;14.23;;
12110;SDS011;6119;52.372;8.990;2022-09-24T07:43:43;20.03;;;14.80;;
12110;SDS011;6119;52.372;8.990;2022-09-24T07:46:30;17.53;;;13.63;;
12110;SDS011;6119;52.372;8.990;2022-09-24T07:49:17;22.47;;;14.23;;
12110;SDS011;6119;52.372;8.990;2022-09-24T07:52:03;21.43;;;14.30;;
12110;SDS011;6119;52.372;8.990;2022-09-24T07:54:50;23.20;;;14.93;;
12110;SDS011;6119;52.372;8.990;2022-09-24T07:57:39;19.23;;;13.73;;
12110;SDS011;6119;52.372;8.990;2022-09-24T08:00:31;21.77;;;13.97;;
12110;SDS011;6119;52.372;8.990;2022-09-24T08:03:17;24.10;;;15.20;;
12110;SDS011;6119;52.372;8.990;2022-09-24T08:06:04;22.83;;;15.70;;
12110;SDS011;6119;52.372;8.990;2022-09-24T08:08:52;20.30;;;13.63;;
12110;SDS011;6119;52.372;8.990;2022-09-24T08:11:39;23.07;;;15.50;;
12110;SDS011;6119;52.372;8.990;2022-09-24T08:14:27;20.43;;;14.77;;
12110;SDS011;6119;52.372;8.990;2022-09-24T08:17:14;23.90;;;16.03;;
12110;SDS011;6119;52.372;8.990;2022-09-24T08:20:00;21.33;;;15.17;;
12110;SDS011;6119;52.372;8.990;2022-09-24T08:22:47;26.00;;;16.17;;
12110;SDS011;6119;52.372;8.990;2022-09-24T08:25:34;20.27;;;14.50;;
12110;SDS011;6119;52.372;8.990;2022-09-24T08:28:20;21.17;;;15.33;;
12110;SDS011;6119;52.372;8.990;2022-09-24T08:31:09;19.93;;;13.87;;
12110;SDS011;6119;52.372;8.990;2022-09-24T08:33:57;20.43;;;14.43;;
12110;SDS011;6119;52.372;8.990;2022-09-24T08:36:44;19.37;;;14.40;;
12110;SDS011;6119;52.372;8.990;2022-09-24T08:39:31;19.77;;;14.07;;
12110;SDS011;6119;52.372;8.990;2022-09-24T08:42:22;19.43;;;14.10;;
12110;SDS011;6119;52.372;8.990;2022-09-24T08:45:17;19.63;;;14.07;;
12110;SDS011;6119;52.372;8.990;2022-09-24T08:48:23;20.67;;;14.47;;
12110;SDS011;6119;52.372;8.990;2022-09-24T08:51:15;22.80;;;15.33;;
12110;SDS011;6119;52.372;8.990;2022-09-24T08:54:04;24.03;;;14.00;;
12110;SDS011;6119;52.372;8.990;2022-09-24T08:56:54;20.33;;;14.77;;
12110;SDS011;6119;52.372;8.990;2022-09-24T08:59:42;19.40;;;15.10;;
12110;SDS011;6119;52.372;8.990;2022-09-24T09:02:33;19.70;;;15.07;;
12110;SDS011;6119;52.372;8.990;2022-09-24T09:05:35;19.37;;;15.13;;
12110;SDS011;6119;52.372;8.990;2022-09-24T09:08:35;19.73;;;15.50;;
12110;SDS011;6119;52.372;8.990;2022-09-24T09:11:47;21.67;;;15.57;;
12110;SDS011;6119;52.372;8.990;2022-09-24T09:14:38;20.50;;;14.57;;
12110;SDS011;6119;52.372;8.990;2022-09-24T09:17:30;20.43;;;14.43;;
12110;SDS011;6119;52.372;8.990;2022-09-24T09:20:22;21.10;;;13.97;;
12110;SDS011;6119;52.372;8.990;2022-09-24T09:23:16;18.57;;;13.60;;
12110;SDS011;6119;52.372;8.990;2022-09-24T09:26:07;19.40;;;13.97;;
12110;SDS011;6119;52.372;8.990;2022-09-24T09:28:57;22.80;;;15.00;;
12110;SDS011;6119;52.372;8.990;2022-09-24T09:31:47;18.53;;;13.70;;
12110;SDS011;6119;52.372;8.990;2022-09-24T09:34:47;20.43;;;14.67;;
12110;SDS011;6119;52.372;8.990;2022-09-24T09:37:41;21.03;;;13.20;;
12110;SDS011;6119;52.372;8.990;2022-09-24T09:40:37;21.40;;;14.10;;
12110;SDS011;6119;52.372;8.990;2022-09-24T09:43:28;20.80;;;13.60;;
12110;SDS011;6119;52.372;8.990;2022-09-24T09:46:17;17.63;;;13.00;;
12110;SDS011;6119;52.372;8.990;2022-09-24T09:49:08;19.57;;;13.27;;
12110;SDS011;6119;52.372;8.990;2022-09-24T09:51:55;18.60;;;13.70;;
12110;SDS011;6119;52.372;8.990;2022-09-24T09:54:46;17.10;;;12.73;;
12110;SDS011;6119;52.372;8.990;2022-09-24T09:57:34;16.23;;;12.63;;
12110;SDS011;6119;52.372;8.990;2022-09-24T10:00:23;16.23;;;11.77;;
12110;SDS011;6119;52.372;8.990;2022-09-24T10:03:25;14.63;;;11.97;;
12110;SDS011;6119;52.372;8.990;2022-09-24T10:06:21;16.97;;;12.67;;
12110;SDS011;6119;52.372;8.990;2022-09-24T10:09:11;20.73;;;13.00;;
12110;SDS011;6119;52.372;8.990;2022-09-24T10:12:14;17.33;;;13.10;;
12110;SDS011;6119;52.372;8.990;2022-09-24T10:15:10;16.67;;;12.57;;
12110;SDS011;6119;52.372;8.990;2022-09-24T10:18:01;17.90;;;11.90;;
12110;SDS011;6119;52.372;8.990;2022-09-24T10:20:48;20.93;;;13.37;;
12110;SDS011;6119;52.372;8.990;2022-09-24T10:23:36;18.13;;;11.80;;
12110;SDS011;6119;52.372;8.990;2022-09-24T10:26:32;17.17;;;11.67;;
12110;SDS011;6119;52.372;8.990;2022-09-24T10:29:29;18.17;;;12.80;;
12110;SDS011;6119;52.372;8.990;2022-09-24T10:32:37;17.83;;;12.60;;
12110;SDS011;6119;52.372;8.990;2022-09-24T10:35:26;16.77;;;11.97;;
12110;SDS011;6119;52.372;8.990;2022-09-24T10:38:14;16.53;;;11.50;;
12110;SDS011;6119;52.372;8.990;2022-09-24T10:41:11;16.10;;;12.07;;
12110;SDS011;6119;52.372;8.990;2022-09-24T10:44:02;16.63;;;12.47;;
12110;SDS011;6119;52.372;8.990;2022-09-24T10:47:10;16.17;;;12.30;;
12110;SDS011;6119;52.372;8.990;2022-09-24T10:50:15;16.53;;;12.37;;
12110;SDS011;6119;52.372;8.990;2022-09-24T10:53:12;18.10;;;11.97;;
12110;SDS011;6119;52.372;8.990;2022-09-24T10:56:03;14.63;;;10.93;;
12110;SDS011;6119;52.372;8.990;2022-09-24T10:59:04;19.00;;;12.43;;
12110;SDS011;6119;52.372;8.990;2022-09-24T11:02:18;16.53;;;11.00;;
12110;SDS011;6119;52.372;8.990;2022-09-24T11:05:21;16.73;;;12.30;;
12110;SDS011;6119;52.372;8.990;2022-09-24T11:08:11;15.23;;;11.20;;
12110;SDS011;6119;52.372;8.990;2022-09-24T11:11:18;18.03;;;12.43;;
12110;SDS011;6119;52.372;8.990;2022-09-24T11:14:16;17.57;;;11.30;;
12110;SDS011;6119;52.372;8.990;2022-09-24T11:17:13;19.03;;;13.53;;
12110;SDS011;6119;52.372;8.990;2022-09-24T11:20:13;27.73;;;18.50;;
12110;SDS011;6119;52.372;8.990;2022-09-24T11:23:25;20.20;;;13.50;;
12110;SDS011;6119;52.372;8.990;2022-09-24T11:26:26;20.17;;;13.07;;
12110;SDS011;6119;52.372;8.990;2022-09-24T11:29:31;19.83;;;12.83;;
12110;SDS011;6119;52.372;8.990;2022-09-24T11:32:26;14.53;;;11.00;;
12110;SDS011;6119;52.372;8.990;2022-09-24T11:35:20;17.77;;;12.27;;
12110;SDS011;6119;52.372;8.990;2022-09-24T11:38:19;19.63;;;12.43;;
12110;SDS011;6119;52.372;8.990;2022-09-24T11:41:20;18.23;;;12.13;;
12110;SDS011;6119;52.372;8.990;2022-09-24T11:47:37;19.33;;;11.77;;
12110;SDS011;6119;52.372;8.990;2022-09-24T11:50:42;19.37;;;12.07;;
12110;SDS011;6119;52.372;8.990;2022-09-24T11:53:37;18.53;;;12.47;;
12110;SDS011;6119;52.372;8.990;2022-09-24T11:56:29;17.10;;;12.00;;
12110;SDS011;6119;52.372;8.990;2022-09-24T11:59:29;15.77;;;11.43;;
12110;SDS011;6119;52.372;8.990;2022-09-24T12:02:20;14.77;;;11.37;;
12110;SDS011;6119;52.372;8.990;2022-09-24T12:05:14;16.63;;;11.60;;
12110;SDS011;6119;52.372;8.990;2022-09-24T12:08:09;16.20;;;11.50;;
12110;SDS011;6119;52.372;8.990;2022-09-24T12:11:03;15.87;;;10.40;;
12110;SDS011;6119;52.372;8.990;2022-09-24T12:13:54;14.77;;;11.17;;
12110;SDS011;6119;52.372;8.990;2022-09-24T12:16:47;15.13;;;11.37;;
12110;SDS011;6119;52.372;8.990;2022-09-24T12:19:40;17.20;;;11.80;;
12110;SDS011;6119;52.372;8.990;2022-09-24T12:22:34;16.07;;;11.73;;
12110;SDS011;6119;52.372;8.990;2022-09-24T12:25:24;18.57;;;11.73;;
12110;SDS011;6119;52.372;8.990;2022-09-24T12:28:14;17.93;;;11.80;;
12110;SDS011;6119;52.372;8.990;2022-09-24T12:31:24;19.10;;;12.13;;
12110;SDS011;6119;52.372;8.990;2022-09-24T12:34:34;17.00;;;11.40;;
12110;SDS011;6119;52.372;8.990;2022-09-24T12:37:30;18.90;;;13.07;;
12110;SDS011;6119;52.372;8.990;2022-09-24T12:40:34;16.83;;;12.07;;
12110;SDS011;6119;52.372;8.990;2022-09-24T12:43:36;18.13;;;12.67;;
12110;SDS011;6119;52.372;8.990;2022-09-24T12:46:27;17.33;;;12.27;;
12110;SDS011;6119;52.372;8.990;2022-09-24T12:49:23;19.37;;;12.80;;
12110;SDS011;6119;52.372;8.990;2022-09-24T12:52:16;19.77;;;13.17;;
12110;SDS011;6119;52.372;8.990;2022-09-24T12:55:17;16.70;;;12.57;;
12110;SDS011;6119;52.372;8.990;2022-09-24T12:58:22;21.83;;;14.60;;
12110;SDS011;6119;52.372;8.990;2022-09-24T13:01:24;18.53;;;13.57;;
12110;SDS011;6119;52.372;8.990;2022-09-24T13:04:25;19.97;;;13.43;;
12110;SDS011;6119;52.372;8.990;2022-09-24T13:07:29;20.73;;;14.30;;
12110;SDS011;6119;52.372;8.990;2022-09-24T13:10:21;17.33;;;13.07;;
12110;SDS011;6119;52.372;8.990;2022-09-24T13:13:20;20.53;;;14.50;;
12110;SDS011;6119;52.372;8.990;2022-09-24T13:16:15;24.87;;;14.63;;
12110;SDS011;6119;52.372;8.990;2022-09-24T13:19:03;22.57;;;14.77;;
12110;SDS011;6119;52.372;8.990;2022-09-24T13:21:52;22.90;;;14.73;;
12110;SDS011;6119;52.372;8.990;2022-09-24T13:24:44;22.37;;;15.50;;
12110;SDS011;6119;52.372;8.990;2022-09-24T13:27:33;23.03;;;15.77;;
12110;SDS011;6119;52.372;8.990;2022-09-24T13:30:25;19.73;;;14.23;;
12110;SDS011;6119;52.372;8.990;2022-09-24T13:33:20;22.47;;;15.47;;
12110;SDS011;6119;52.372;8.990;2022-09-24T13:36:12;22.77;;;15.97;;
12110;SDS011;6119;52.372;8.990;2022-09-24T13:39:02;22.47;;;16.10;;
12110;SDS011;6119;52.372;8.990;2022-09-24T13:41:56;23.73;;;15.47;;
12110;SDS011;6119;52.372;8.990;2022-09-24T13:44:47;21.07;;;15.47;;
12110;SDS011;6119;52.372;8.990;2022-09-24T13:47:39;24.40;;;16.17;;
12110;SDS011;6119;52.372;8.990;2022-09-24T13:50:30;22.77;;;16.00;;
12110;SDS011;6119;52.372;8.990;2022-09-24T13:53:21;20.60;;;15.87;;
12110;SDS011;6119;52.372;8.990;2022-09-24T13:56:14;25.20;;;16.27;;
12110;SDS011;6119;52.372;8.990;2022-09-24T13:59:03;20.17;;;15.40;;
12110;SDS011;6119;52.372;8.990;2022-09-24T14:01:51;21.60;;;15.70;;
12110;SDS011;6119;52.372;8.990;2022-09-24T14:04:39;20.93;;;15.10;;
12110;SDS011;6119;52.372;8.990;2022-09-24T14:07:27;24.07;;;16.27;;
12110;SDS011;6119;52.372;8.990;2022-09-24T14:10:14;21.87;;;15.50;;
12110;SDS011;6119;52.372;8.990;2022-09-24T14:13:01;20.03;;;15.13;;
12110;SDS011;6119;52.372;8.990;2022-09-24T14:15:59;23.07;;;15.40;;
12110;SDS011;6119;52.372;8.990;2022-09-24T14:19:02;19.90;;;14.63;;
12110;SDS011;6119;52.372;8.990;2022-09-24T14:21:52;21.07;;;14.23;;
12110;SDS011;6119;52.372;8.990;2022-09-24T14:24:41;22.17;;;15.87;;
12110;SDS011;6119;52.372;8.990;2022-09-24T14:27:30;20.60;;;15.27;;
12110;SDS011;6119;52.372;8.990;2022-09-24T14:30:20;23.43;;;16.37;;
12110;SDS011;6119;52.372;8.990;2022-09-24T14:33:11;21.63;;;15.50;;
12110;SDS011;6119;52.372;8.990;2022-09-24T14:35:59;21.00;;;16.00;;
12110;SDS011;6119;52.372;8.990;2022-09-24T14:38:51;24.83;;;16.50;;
12110;SDS011;6119;52.372;8.990;2022-09-24T14:41:41;26.90;;;17.10;;
12110;SDS011;6119;52.372;8.990;2022-09-24T14:44:28;23.93;;;17.07;;
12110;SDS011;6119;52.372;8.990;2022-09-24T14:47:22;26.30;;;17.30;;
12110;SDS011;6119;52.372;8.990;2022-09-24T14:50:23;26.47;;;18.03;;
12110;SDS011;6119;52.372;8.990;2022-09-24T14:53:20;25.60;;;17.77;;
12110;SDS011;6119;52.372;8.990;2022-09-24T14:56:18;26.57;;;18.37;;
12110;SDS011;6119;52.372;8.990;2022-09-24T14:59:11;25.13;;;17.50;;
12110;SDS011;6119;52.372;8.990;2022-09-24T15:02:02;32.27;;;20.87;;
12110;SDS011;6119;52.372;8.990;2022-09-24T15:05:01;33.03;;;21.23;;
12110;SDS011;6119;52.372;8.990;2022-09-24T15:07:51;36.37;;;21.13;;
12110;SDS011;6119;52.372;8.990;2022-09-24T15:10:55;30.50;;;20.93;;
12110;SDS011;6119;52.372;8.990;2022-09-24T15:13:45;29.33;;;20.30;;
12110;SDS011;6119;52.372;8.990;2022-09-24T15:16:42;28.13;;;19.13;;
12110;SDS011;6119;52.372;8.990;2022-09-24T15:19:31;23.90;;;17.97;;
12110;SDS011;6119;52.372;8.990;2022-09-24T15:22:20;28.60;;;19.17;;
12110;SDS011;6119;52.372;8.990;2022-09-24T15:25:09;26.37;;;18.87;;
12110;SDS011;6119;52.372;8.990;2022-09-24T15:27:58;24.03;;;17.97;;
12110;SDS011;6119;52.372;8.990;2022-09-24T15:30:46;23.30;;;18.30;;
12110;SDS011;6119;52.372;8.990;2022-09-24T15:33:33;26.27;;;19.40;;
12110;SDS011;6119;52.372;8.990;2022-09-24T15:36:19;25.10;;;19.67;;
12110;SDS011;6119;52.372;8.990;2022-09-24T15:39:06;29.53;;;20.77;;
12110;SDS011;6119;52.372;8.990;2022-09-24T15:41:55;32.27;;;21.43;;
12110;SDS011;6119;52.372;8.990;2022-09-24T15:44:41;29.30;;;20.67;;
12110;SDS011;6119;52.372;8.990;2022-09-24T15:47:29;28.37;;;21.33;;
12110;SDS011;6119;52.372;8.990;2022-09-24T15:50:16;33.33;;;23.47;;
12110;SDS011;6119;52.372;8.990;2022-09-24T15:53:03;31.80;;;21.87;;
12110;SDS011;6119;52.372;8.990;2022-09-24T15:55:52;32.23;;;23.40;;
12110;SDS011;6119;52.372;8.990;2022-09-24T15:58:40;33.93;;;23.60;;
12110;SDS011;6119;52.372;8.990;2022-09-24T16:01:27;33.10;;;24.07;;
12110;SDS011;6119;52.372;8.990;2022-09-24T16:04:14;28.97;;;22.10;;
12110;SDS011;6119;52.372;8.990;2022-09-24T16:07:01;30.87;;;23.13;;
12110;SDS011;6119;52.372;8.990;2022-09-24T16:09:48;29.07;;;21.70;;
12110;SDS011;6119;52.372;8.990;2022-09-24T16:12:34;33.40;;;22.20;;
12110;SDS011;6119;52.372;8.990;2022-09-24T16:15:21;32.70;;;21.70;;
12110;SDS011;6119;52.372;8.990;2022-09-24T16:18:08;29.93;;;21.70;;
12110;SDS011;6119;52.372;8.990;2022-09-24T16:20:59;28.73;;;20.60;;
12110;SDS011;6119;52.372;8.990;2022-09-24T16:23:52;30.73;;;21.27;;
12110;SDS011;6119;52.372;8.990;2022-09-24T16:26:39;30.03;;;22.03;;
12110;SDS011;6119;52.372;8.990;2022-09-24T16:29:25;26.50;;;20.77;;
12110;SDS011;6119;52.372;8.990;2022-09-24T16:32:12;29.07;;;20.77;;
12110;SDS011;6119;52.372;8.990;2022-09-24T16:34:58;27.17;;;20.10;;
12110;SDS011;6119;52.372;8.990;2022-09-24T16:37:46;33.43;;;21.67;;
12110;SDS011;6119;52.372;8.990;2022-09-24T16:40:33;28.60;;;20.13;;
12110;SDS011;6119;52.372;8.990;2022-09-24T16:43:20;29.40;;;20.93;;
12110;SDS011;6119;52.372;8.990;2022-09-24T16:46:07;28.90;;;20.23;;
12110;SDS011;6119;52.372;8.990;2022-09-24T16:48:54;27.93;;;19.93;;
12110;SDS011;6119;52.372;8.990;2022-09-24T16:51:41;28.10;;;20.67;;
12110;SDS011;6119;52.372;8.990;2022-09-24T16:54:29;28.07;;;20.30;;
12110;SDS011;6119;52.372;8.990;2022-09-24T16:57:16;27.50;;;19.27;;
12110;SDS011;6119;52.372;8.990;2022-09-24T17:00:03;26.90;;;19.43;;
12110;SDS011;6119;52.372;8.990;2022-09-24T17:02:51;29.00;;;20.87;;
12110;SDS011;6119;52.372;8.990;2022-09-24T17:05:38;27.50;;;19.77;;